createdAt,value
2022-11-02T00:00:52.739Z,62.37
2022-11-02T00:03:29.360Z,62.15
2022-11-02T00:06:07.309Z,62.59
2022-11-02T00:08:46.505Z,62.98
2022-11-02T00:11:16.736Z,63.01
2022-11-02T00:13:52.674Z,63.35
2022-11-02T00:16:26.910Z,63.40
2022-11-02T00:19:04.492Z,63.35
2022-11-02T00:21:38.954Z,63.76
2022-11-02T00:24:12.657Z,63.79
2022-11-02T00:26:42.886Z,63.32
2022-11-02T00:29:26.191Z,63.04
2022-11-02T00:32:00.690Z,63.71
2022-11-02T00:34:44.095Z,64.96
2022-11-02T00:37:16.136Z,65.50
2022-11-02T00:39:51.003Z,65.10
2022-11-02T00:42:25.258Z,64.93
2022-11-02T00:45:24.930Z,64.96
2022-11-02T00:47:55.775Z,64.04
2022-11-02T00:50:33.575Z,63.63
2022-11-02T00:53:07.598Z,63.66
2022-11-02T00:55:55.026Z,63.18
2022-11-02T00:58:31.994Z,63.71
2022-11-02T01:01:11.861Z,64.66
2022-11-02T01:03:49.052Z,63.49
2022-11-02T01:06:31.414Z,64.26
2022-11-02T01:09:03.077Z,63.67
2022-11-02T01:11:37.196Z,65.05
2022-11-02T01:14:11.909Z,65.44
2022-11-02T01:16:49.907Z,65.20
2022-11-02T01:19:30.216Z,64.72
2022-11-02T01:22:02.599Z,64.84
2022-11-02T01:24:40.357Z,66.16
2022-11-02T01:27:11.750Z,68.78
2022-11-02T01:29:43.776Z,67.77
2022-11-02T01:32:16.985Z,66.93
2022-11-02T01:34:51.432Z,66.17
2022-11-02T01:37:32.504Z,68.54
2022-11-02T01:40:03.046Z,66.68
2022-11-02T01:42:43.463Z,66.20
2022-11-02T01:45:27.491Z,66.31
2022-11-02T01:48:01.382Z,66.02
2022-11-02T01:50:34.843Z,65.44
2022-11-02T01:53:10.188Z,65.22
2022-11-02T01:55:41.763Z,66.02
2022-11-02T01:58:22.175Z,65.76
2022-11-02T02:00:55.374Z,65.29
2022-11-02T02:03:43.966Z,66.17
2022-11-02T02:06:18.508Z,65.81
2022-11-02T02:09:00.482Z,65.45
2022-11-02T02:11:34.926Z,65.46
2022-11-02T02:14:13.231Z,66.83
2022-11-02T02:17:03.841Z,65.57
2022-11-02T02:20:13.776Z,65.99
2022-11-02T02:23:08.389Z,67.19
2022-11-02T02:25:50.673Z,66.81
2022-11-02T02:28:53.167Z,66.74
2022-11-02T02:31:45.743Z,66.16
2022-11-02T02:34:24.783Z,66.17
2022-11-02T02:37:00.669Z,66.45
2022-11-02T02:39:47.564Z,68.42
2022-11-02T02:42:29.285Z,67.14
2022-11-02T02:45:35.311Z,66.25
2022-11-02T02:48:21.520Z,65.95
2022-11-02T02:51:00.918Z,66.20
2022-11-02T02:53:38.248Z,66.36
2022-11-02T02:56:15.928Z,66.98
2022-11-02T02:59:13.458Z,66.76
2022-11-02T03:01:48.868Z,66.62
2022-11-02T03:04:21.854Z,66.25
2022-11-02T03:07:01.535Z,65.79
2022-11-02T03:09:40.502Z,66.34
2022-11-02T03:12:36.992Z,65.14
2022-11-02T03:15:16.977Z,64.99
2022-11-02T03:18:05.095Z,64.89
2022-11-02T03:20:55.455Z,65.14
2022-11-02T03:23:32.720Z,64.96
2022-11-02T03:26:18.026Z,65.33
2022-11-02T03:29:10.282Z,66.00
2022-11-02T03:32:03.839Z,65.60
2022-11-02T03:34:46.180Z,65.65
2022-11-02T03:37:52.547Z,66.06
2022-11-02T03:40:32.111Z,67.21
2022-11-02T03:43:07.420Z,67.87
2022-11-02T03:45:49.759Z,66.66
2022-11-02T03:48:26.268Z,66.62
2022-11-02T03:51:07.415Z,66.05
2022-11-02T03:54:02.518Z,65.63
2022-11-02T03:56:47.074Z,66.05
2022-11-02T03:59:26.678Z,66.08
2022-11-02T04:02:14.089Z,66.14
2022-11-02T04:04:57.046Z,65.89
2022-11-02T04:07:58.363Z,65.98
2022-11-02T04:10:35.322Z,65.89
2022-11-02T04:13:37.535Z,65.53
2022-11-02T04:16:15.967Z,65.68
2022-11-02T04:19:06.592Z,66.05
2022-11-02T04:22:01.717Z,65.70
2022-11-02T04:24:57.783Z,66.07
2022-11-02T04:27:39.944Z,65.90
2022-11-02T04:30:21.795Z,66.42
2022-11-02T04:33:14.003Z,65.85
2022-11-02T04:35:56.265Z,65.68
2022-11-02T04:38:45.483Z,65.68
2022-11-02T04:41:42.291Z,65.62
2022-11-02T04:44:26.219Z,65.97
2022-11-02T04:47:05.203Z,66.85
2022-11-02T04:49:58.804Z,67.29
2022-11-02T04:52:39.750Z,67.64
2022-11-02T04:55:16.832Z,67.22
2022-11-02T04:57:51.748Z,67.22
2022-11-02T05:00:27.736Z,67.38
2022-11-02T05:03:08.110Z,66.84
2022-11-02T05:06:00.577Z,66.50
2022-11-02T05:08:44.567Z,66.64
2022-11-02T05:11:28.521Z,66.87
2022-11-02T05:14:06.452Z,67.37
2022-11-02T05:16:43.520Z,68.58
2022-11-02T05:19:16.748Z,69.70
2022-11-02T05:22:07.947Z,68.56
2022-11-02T05:24:44.456Z,68.37
2022-11-02T05:27:21.973Z,68.17
2022-11-02T05:30:06.297Z,68.19
2022-11-02T05:32:46.258Z,68.69
2022-11-02T05:35:24.403Z,69.18
2022-11-02T05:38:11.839Z,69.79
2022-11-02T05:41:01.408Z,70.23
2022-11-02T05:43:49.235Z,68.87
2022-11-02T05:46:34.063Z,68.68
2022-11-02T05:49:27.454Z,68.44
2022-11-02T05:52:05.484Z,67.72
2022-11-02T05:54:33.866Z,67.35
2022-11-02T05:57:02.145Z,67.27
2022-11-02T05:59:31.614Z,66.88
2022-11-02T06:01:59.259Z,67.05
2022-11-02T06:04:27.478Z,67.42
2022-11-02T06:06:58.963Z,68.12
2022-11-02T06:09:27.835Z,68.81
2022-11-02T06:11:56.399Z,69.75
2022-11-02T06:14:26.207Z,69.18
2022-11-02T06:16:54.708Z,69.42
2022-11-02T06:19:23.277Z,70.75
2022-11-02T06:21:51.686Z,69.36
2022-11-02T06:24:19.876Z,69.52
2022-11-02T06:26:49.071Z,68.07
2022-11-02T06:29:16.921Z,67.47
2022-11-02T06:31:46.458Z,66.93
2022-11-02T06:34:14.320Z,66.46
2022-11-02T06:36:42.691Z,67.24
2022-11-02T06:39:11.568Z,66.59
2022-11-02T06:41:39.946Z,66.61
2022-11-02T06:44:08.028Z,65.55
2022-11-02T06:46:36.467Z,65.60
2022-11-02T06:49:04.420Z,65.81
2022-11-02T06:51:32.225Z,65.55
2022-11-02T06:54:05.982Z,65.89
2022-11-02T06:56:36.441Z,66.44
2022-11-02T06:59:04.501Z,66.25
2022-11-02T07:01:35.831Z,65.91
2022-11-02T07:04:04.296Z,67.54
2022-11-02T07:06:34.388Z,67.27
2022-11-02T07:09:07.012Z,66.37
2022-11-02T07:11:35.755Z,66.02
2022-11-02T07:14:03.662Z,65.69
2022-11-02T07:16:31.855Z,65.39
2022-11-02T07:19:00.296Z,64.91
2022-11-02T07:21:28.048Z,65.11
2022-11-02T07:23:55.554Z,65.76
2022-11-02T07:26:24.861Z,65.27
2022-11-02T07:28:55.274Z,65.67
2022-11-02T07:31:27.584Z,65.37
2022-11-02T07:33:55.654Z,65.92
2022-11-02T07:36:23.552Z,65.55
2022-11-02T07:38:52.002Z,65.42
2022-11-02T07:41:19.787Z,65.31
2022-11-02T07:43:48.388Z,66.15
2022-11-02T07:46:17.706Z,66.15
2022-11-02T07:48:47.072Z,65.46
2022-11-02T07:51:14.717Z,65.29
2022-11-02T07:53:42.931Z,65.07
2022-11-02T07:56:11.684Z,64.95
2022-11-02T07:58:40.002Z,64.66
2022-11-02T08:01:08.554Z,64.37
2022-11-02T08:03:36.936Z,63.88
2022-11-02T08:06:05.273Z,64.00
2022-11-02T08:08:33.130Z,63.14
2022-11-02T08:11:09.846Z,63.58
2022-11-02T08:13:39.709Z,62.95
2022-11-02T08:16:10.154Z,63.75
2022-11-02T08:18:38.064Z,64.26
2022-11-02T08:21:05.953Z,63.51
2022-11-02T08:23:33.923Z,64.17
2022-11-02T08:26:01.887Z,63.39
2022-11-02T08:28:32.404Z,64.00
2022-11-02T08:31:00.830Z,64.27
2022-11-02T08:33:28.796Z,63.90
2022-11-02T08:36:02.451Z,63.61
2022-11-02T08:38:31.749Z,63.23
2022-11-02T08:40:59.819Z,63.68
2022-11-02T08:43:27.764Z,65.68
2022-11-02T08:46:14.324Z,63.77
2022-11-02T08:48:44.742Z,63.98
2022-11-02T08:51:13.373Z,64.15
2022-11-02T08:53:42.366Z,63.79
2022-11-02T08:56:12.896Z,63.86
2022-11-02T08:58:41.051Z,62.82
2022-11-02T09:01:08.972Z,62.13
2022-11-02T09:03:37.468Z,61.76
2022-11-02T09:06:05.823Z,61.51
2022-11-02T09:08:33.668Z,61.19
2022-11-02T09:11:04.365Z,60.37
2022-11-02T09:13:34.262Z,60.23
2022-11-02T09:16:05.138Z,59.53
2022-11-02T09:18:33.963Z,60.55
2022-11-02T09:21:05.644Z,59.40
2022-11-02T09:23:34.044Z,59.01
2022-11-02T09:26:04.154Z,59.40
2022-11-02T09:28:33.690Z,58.83
2022-11-02T09:31:03.824Z,59.37
2022-11-02T09:33:36.782Z,58.41
2022-11-02T09:36:06.707Z,59.04
2022-11-02T09:38:34.815Z,58.41
2022-11-02T09:41:21.664Z,58.37
2022-11-02T09:44:08.867Z,58.05
2022-11-02T09:46:42.827Z,58.14
2022-11-02T09:49:20.269Z,57.71
2022-11-02T09:51:57.380Z,58.12
2022-11-02T09:54:48.844Z,57.82
2022-11-02T09:57:30.014Z,57.96
2022-11-02T09:59:58.454Z,58.42
2022-11-02T10:02:33.630Z,59.29
2022-11-02T10:05:26.114Z,59.18
2022-11-02T10:08:14.387Z,58.71
2022-11-02T10:10:53.291Z,58.89
2022-11-02T10:13:37.725Z,59.63
2022-11-02T10:16:08.084Z,59.35
2022-11-02T10:18:37.209Z,59.39
2022-11-02T10:21:08.473Z,59.99
2022-11-02T10:24:03.967Z,59.89
2022-11-02T10:26:37.589Z,59.70
2022-11-02T10:29:18.673Z,59.62
2022-11-02T10:31:48.685Z,59.16
2022-11-02T10:34:23.994Z,59.17
2022-11-02T10:37:01.185Z,59.35
2022-11-02T10:39:31.516Z,58.58
2022-11-02T10:42:26.919Z,58.19
2022-11-02T10:45:41.236Z,57.31
2022-11-02T10:48:23.302Z,55.80
2022-11-02T10:50:59.903Z,54.83
2022-11-02T10:53:41.143Z,54.92
2022-11-02T10:56:19.435Z,53.75
2022-11-02T10:59:00.019Z,53.87
2022-11-02T11:01:30.256Z,53.87
2022-11-02T11:04:02.018Z,52.69
2022-11-02T11:06:41.619Z,52.42
2022-11-02T11:09:20.249Z,52.18
2022-11-02T11:12:06.180Z,52.92
2022-11-02T11:20:40.291Z,51.88
2022-11-02T11:23:22.433Z,51.76
2022-11-02T11:26:05.409Z,51.18
2022-11-02T11:28:52.970Z,49.74
2022-11-02T11:31:21.628Z,49.31
2022-11-02T11:33:54.686Z,49.14
2022-11-02T11:36:31.158Z,49.25
2022-11-02T11:39:02.526Z,48.88
2022-11-02T11:41:31.113Z,48.32
2022-11-02T11:44:01.372Z,48.68
2022-11-02T11:46:40.905Z,49.04
2022-11-02T11:50:07.253Z,49.12
2022-11-02T11:52:25.583Z,49.20
2022-11-02T11:55:16.245Z,49.27
2022-11-02T11:57:44.326Z,49.43
2022-11-02T12:00:28.262Z,49.50
2022-11-02T12:03:08.566Z,49.49
2022-11-02T12:05:57.567Z,49.62
2022-11-02T12:08:32.151Z,48.53
2022-11-02T12:11:31.752Z,47.98
2022-11-02T12:14:15.408Z,47.57
2022-11-02T12:16:56.623Z,48.45
2022-11-02T12:19:54.612Z,47.84
2022-11-02T12:22:44.997Z,47.57
2022-11-02T12:25:26.155Z,47.57
2022-11-02T12:28:14.446Z,48.08
2022-11-02T12:31:20.230Z,48.49
2022-11-02T12:34:30.521Z,48.48
2022-11-02T12:37:38.697Z,48.67
2022-11-02T12:40:14.688Z,48.66
2022-11-02T12:43:15.758Z,48.44
2022-11-02T12:45:58.364Z,48.02
2022-11-02T12:49:05.841Z,47.18
2022-11-02T12:51:39.821Z,44.06
2022-11-02T12:54:12.747Z,44.38
2022-11-02T12:56:49.808Z,42.92
2022-11-02T12:59:28.112Z,42.67
2022-11-02T13:01:59.642Z,43.38
2022-11-02T13:04:36.857Z,42.93
2022-11-02T13:07:15.832Z,41.88
2022-11-02T13:09:54.430Z,40.35
2022-11-02T13:12:23.958Z,40.04
2022-11-02T13:14:55.163Z,40.68
2022-11-02T13:17:27.712Z,40.74
2022-11-02T13:20:01.506Z,41.29
2022-11-02T13:22:36.037Z,41.15
2022-11-02T13:25:15.369Z,41.07
2022-11-02T13:27:49.351Z,41.19
2022-11-02T13:30:18.735Z,40.66
2022-11-02T13:33:15.086Z,40.95
2022-11-02T13:35:43.534Z,40.40
2022-11-02T13:38:44.860Z,40.93
2022-11-02T13:41:37.194Z,40.45
2022-11-02T13:44:32.219Z,40.47
2022-11-02T13:47:15.640Z,40.81
2022-11-02T13:49:45.613Z,40.97
2022-11-02T13:52:21.765Z,41.52
2022-11-02T13:54:52.453Z,40.99
2022-11-02T13:57:41.275Z,40.33
2022-11-02T14:00:24.153Z,39.44
2022-11-02T14:03:07.071Z,38.06
2022-11-02T14:05:36.744Z,38.69
2022-11-02T14:08:08.179Z,39.74
2022-11-02T14:10:41.212Z,40.01
2022-11-02T14:13:16.161Z,41.06
2022-11-02T14:15:44.135Z,41.96
2022-11-02T14:18:26.766Z,42.72
2022-11-02T14:20:54.378Z,42.83
2022-11-02T14:23:25.984Z,43.64
2022-11-02T14:25:55.605Z,44.44
2022-11-02T14:28:23.870Z,44.63
2022-11-02T14:31:02.210Z,45.04
2022-11-02T14:34:17.568Z,45.29
2022-11-02T14:36:51.625Z,45.15
2022-11-02T14:39:49.496Z,45.89
2022-11-02T14:42:20.664Z,46.28
2022-11-02T14:45:07.556Z,46.51
2022-11-02T14:47:37.491Z,46.51
2022-11-02T14:50:16.680Z,46.97
2022-11-02T14:53:00.218Z,46.60
2022-11-02T14:55:34.073Z,46.33
2022-11-02T14:58:10.866Z,46.94
2022-11-02T15:00:56.734Z,47.06
2022-11-02T15:03:28.783Z,47.30
2022-11-02T15:06:07.766Z,46.96
2022-11-02T15:08:48.387Z,47.14
2022-11-02T15:11:47.790Z,47.17
2022-11-02T15:14:35.481Z,47.64
2022-11-02T15:17:10.476Z,47.71
2022-11-02T15:19:47.358Z,48.08
2022-11-02T15:22:46.812Z,47.59
2022-11-02T15:25:41.853Z,47.84
2022-11-02T15:28:20.078Z,47.51
2022-11-02T15:30:53.847Z,48.90
2022-11-02T15:33:34.969Z,48.45
2022-11-02T15:36:04.999Z,48.18
2022-11-02T15:38:40.343Z,48.03
2022-11-02T15:41:33.553Z,48.38
2022-11-02T15:44:15.534Z,48.71
2022-11-02T15:46:59.134Z,48.60
2022-11-02T15:49:34.924Z,48.76
2022-11-02T15:52:29.211Z,49.20
2022-11-02T15:55:21.220Z,49.26
2022-11-02T15:58:02.390Z,49.88
2022-11-02T16:00:31.667Z,49.85
2022-11-02T16:03:07.369Z,49.81
2022-11-02T16:05:38.197Z,50.55
2022-11-02T16:08:25.539Z,51.22
2022-11-02T16:11:05.829Z,51.16
2022-11-02T16:14:03.537Z,51.90
2022-11-02T16:16:33.258Z,51.94
2022-11-02T16:19:04.264Z,52.42
2022-11-02T16:21:32.495Z,52.49
2022-11-02T16:24:00.527Z,53.47
2022-11-02T16:26:29.928Z,53.05
2022-11-02T16:29:00.101Z,53.93
2022-11-02T16:31:32.201Z,54.61
2022-11-02T16:34:16.177Z,54.19
2022-11-02T16:36:44.559Z,55.53
2022-11-02T16:39:13.709Z,55.43
2022-11-02T16:41:47.463Z,55.17
2022-11-02T16:44:20.154Z,55.47
2022-11-02T16:46:50.229Z,55.48
2022-11-02T16:49:22.815Z,55.23
2022-11-02T16:51:56.347Z,55.05
2022-11-02T16:54:38.777Z,55.64
2022-11-02T16:57:17.296Z,55.04
2022-11-02T16:59:49.742Z,55.18
2022-11-02T17:02:19.873Z,55.17
2022-11-02T17:07:25.458Z,56.92
2022-11-02T17:09:57.017Z,57.15
2022-11-02T17:12:36.108Z,56.95
2022-11-02T17:15:15.486Z,56.08
2022-11-02T17:17:44.066Z,55.91
2022-11-02T17:20:15.346Z,56.02
2022-11-02T17:22:55.753Z,56.15
2022-11-02T17:25:26.844Z,56.12
2022-11-02T17:27:57.862Z,56.95
2022-11-02T17:30:30.215Z,56.72
2022-11-02T17:32:59.120Z,57.37
2022-11-02T17:35:33.015Z,58.34
2022-11-02T17:38:02.561Z,58.31
2022-11-02T17:40:33.599Z,57.86
2022-11-02T17:43:02.620Z,58.28
2022-11-02T17:45:33.701Z,58.73
2022-11-02T17:48:03.082Z,58.97
2022-11-02T17:50:37.475Z,59.29
2022-11-02T17:53:12.086Z,59.47
2022-11-02T17:55:40.640Z,59.57
2022-11-02T17:58:11.450Z,59.29
2022-11-02T18:00:40.736Z,58.67
2022-11-02T18:03:19.241Z,58.79
2022-11-02T18:05:50.207Z,59.23
2022-11-02T18:08:20.868Z,58.76
2022-11-02T18:10:51.372Z,58.79
2022-11-02T18:13:21.711Z,58.53
2022-11-02T18:15:51.469Z,58.17
2022-11-02T18:18:20.001Z,58.46
2022-11-02T18:20:48.961Z,59.27
2022-11-02T18:23:17.902Z,57.49
2022-11-02T18:25:45.803Z,57.48
2022-11-02T18:28:14.449Z,57.17
2022-11-02T18:30:44.891Z,57.53
2022-11-02T18:33:14.651Z,57.59
2022-11-02T18:35:43.127Z,57.58
2022-11-02T18:38:12.163Z,57.59
2022-11-02T18:40:40.547Z,57.63
2022-11-02T18:43:13.428Z,57.23
2022-11-02T18:45:42.117Z,57.35
2022-11-02T18:48:13.188Z,58.34
2022-11-02T18:50:42.917Z,57.46
2022-11-02T18:53:12.860Z,58.02
2022-11-02T18:55:41.783Z,57.29
2022-11-02T18:58:12.145Z,56.88
2022-11-02T19:00:42.105Z,55.67
2022-11-02T19:03:12.116Z,55.38
2022-11-02T19:06:03.644Z,55.68
2022-11-02T19:08:52.114Z,55.54
2022-11-02T19:11:20.457Z,55.85
2022-11-02T19:13:48.670Z,56.17
2022-11-02T19:16:17.422Z,56.44
2022-11-02T19:18:48.790Z,56.76
2022-11-02T19:21:22.736Z,56.26
2022-11-02T19:23:52.675Z,57.05
2022-11-02T19:26:20.487Z,57.04
2022-11-02T19:28:49.093Z,56.55
2022-11-02T19:31:18.907Z,57.68
2022-11-02T19:33:47.394Z,56.59
2022-11-02T19:36:16.067Z,57.56
2022-11-02T19:38:48.204Z,57.56
2022-11-02T19:41:19.771Z,58.02
2022-11-02T19:43:51.231Z,57.96
2022-11-02T19:46:23.072Z,57.23
2022-11-02T19:48:53.447Z,56.77
2022-11-02T19:51:24.887Z,57.99
2022-11-02T19:53:59.853Z,57.20
2022-11-02T19:56:31.834Z,57.33
2022-11-02T19:59:00.550Z,57.03
2022-11-02T20:01:37.057Z,57.17
2022-11-02T20:04:07.243Z,56.76
2022-11-02T20:06:43.096Z,57.66
2022-11-02T20:09:15.693Z,57.14
2022-11-02T20:11:45.827Z,56.61
2022-11-02T20:14:16.929Z,57.12
2022-11-02T20:16:58.424Z,56.47
2022-11-02T20:19:35.155Z,56.87
2022-11-02T20:22:08.597Z,57.27
2022-11-02T20:24:37.770Z,56.34
2022-11-02T20:27:07.145Z,56.98
2022-11-02T20:29:36.021Z,57.33
2022-11-02T20:32:10.158Z,57.40
2022-11-02T20:34:39.475Z,57.65
2022-11-02T20:37:09.150Z,57.12
2022-11-02T20:39:38.372Z,57.40
2022-11-02T20:42:11.487Z,57.67
2022-11-02T20:44:40.308Z,57.86
2022-11-02T20:47:10.721Z,58.79
2022-11-02T20:49:54.945Z,58.80
2022-11-02T20:52:24.604Z,58.72
2022-11-02T20:54:53.389Z,59.50
2022-11-02T20:57:23.205Z,59.77
2022-11-02T20:59:52.641Z,59.07
2022-11-02T21:02:22.443Z,58.16
2022-11-02T21:04:51.457Z,59.94
2022-11-02T21:07:21.711Z,59.61
2022-11-02T21:09:50.163Z,59.07
2022-11-02T21:12:36.685Z,60.01
2022-11-02T21:15:06.583Z,59.10
2022-11-02T21:17:36.694Z,58.80
2022-11-02T21:20:32.672Z,59.06
2022-11-02T21:23:05.917Z,58.85
2022-11-02T21:25:39.738Z,59.16
2022-11-02T21:28:09.553Z,58.78
2022-11-02T21:30:41.107Z,58.65
2022-11-02T21:33:12.254Z,59.24
2022-11-02T21:35:43.695Z,59.90
2022-11-02T21:38:13.630Z,59.25
2022-11-02T21:40:45.287Z,59.48
2022-11-02T21:43:13.421Z,59.30
2022-11-02T21:45:51.712Z,59.29
2022-11-02T21:48:21.779Z,59.83
2022-11-02T21:51:01.044Z,59.95
2022-11-02T21:53:31.380Z,60.29
2022-11-02T21:56:06.257Z,60.46
2022-11-02T21:58:34.797Z,59.63
2022-11-02T22:01:29.102Z,60.20
2022-11-02T22:03:57.848Z,60.01
2022-11-02T22:06:30.997Z,60.33
2022-11-02T22:09:01.390Z,60.28
2022-11-02T22:11:29.455Z,60.37
2022-11-02T22:14:19.817Z,60.79
2022-11-02T22:16:51.016Z,60.22
2022-11-02T22:19:19.765Z,60.28
2022-11-02T22:21:50.242Z,60.76
2022-11-02T22:24:17.831Z,60.90
2022-11-02T22:26:46.175Z,61.06
2022-11-02T22:29:16.781Z,60.98
2022-11-02T22:31:45.234Z,61.14
2022-11-02T22:34:17.942Z,60.85
2022-11-02T22:36:52.419Z,60.56
2022-11-02T22:39:25.878Z,60.91
2022-11-02T22:41:56.146Z,60.25
2022-11-02T22:44:27.295Z,60.73
2022-11-02T22:46:57.883Z,60.44
2022-11-02T22:49:30.582Z,62.19
2022-11-02T22:52:02.537Z,62.18
2022-11-02T22:54:35.051Z,63.21
2022-11-02T22:57:05.835Z,63.03
2022-11-02T22:59:39.622Z,62.48
2022-11-02T23:02:09.326Z,61.62
2022-11-02T23:04:40.458Z,61.26
2022-11-02T23:07:11.821Z,61.50
2022-11-02T23:09:46.048Z,61.24
2022-11-02T23:12:21.481Z,61.06
2022-11-02T23:14:53.958Z,62.40
2022-11-02T23:17:28.222Z,62.44
2022-11-02T23:20:01.070Z,61.41
2022-11-02T23:22:33.512Z,61.55
2022-11-02T23:25:15.307Z,61.07
2022-11-02T23:28:17.627Z,61.10
2022-11-02T23:31:07.533Z,61.33
2022-11-02T23:33:38.638Z,61.30
2022-11-02T23:36:13.913Z,61.33
2022-11-02T23:39:06.483Z,61.99
2022-11-02T23:41:45.618Z,61.69
2022-11-02T23:44:15.849Z,61.90
2022-11-02T23:46:49.579Z,61.35
2022-11-02T23:49:23.140Z,61.87
2022-11-02T23:52:13.475Z,62.45
2022-11-02T23:55:02.649Z,62.34
2022-11-02T23:57:35.891Z,62.34
